Time;durP1;ratioP1;P1;durP2;ratioP2;P2;SDS_P1;SDS_P2;PMS_P1;PMS_P2;Temp;Humidity;BMP_temperature;BMP_pressure;BME280_temperature;BME280_humidity;BME280_pressure;Samples;Min_cycle;Max_cycle;Signal;HPM_P1;HPM_P2
2023/09/25 00:00:08;;;;;;;27.92;7.57;;;;;;;;;;4369071;32;317723;-86
2023/09/25 00:02:35;;;;;;;41.50;8.85;;;;;;;;;;4378963;32;357064;-85
2023/09/25 00:05:05;;;;;;;38.83;7.47;;;;;;;;;;4371627;32;317649;-87
2023/09/25 00:07:34;;;;;;;25.52;8.07;;;;;;;;;;4380544;32;318094;-85
2023/09/25 00:10:02;;;;;;;29.37;7.80;;;;;;;;;;4368557;32;317820;-85
2023/09/25 00:12:29;;;;;;;33.25;8.73;;;;;;;;;;4379554;32;317763;-80
2023/09/25 00:14:57;;;;;;;27.80;8.75;;;;;;;;;;4372010;32;317852;-80
2023/09/25 00:17:24;;;;;;;27.70;7.55;;;;;;;;;;4374801;32;316658;-79
2023/09/25 00:19:52;;;;;;;26.10;8.32;;;;;;;;;;4377652;32;317738;-85
2023/09/25 00:22:19;;;;;;;29.42;8.07;;;;;;;;;;4368628;32;417266;-87
2023/09/25 00:24:48;;;;;;;35.72;8.25;;;;;;;;;;4382249;32;318059;-86
2023/09/25 00:27:15;;;;;;;34.78;7.97;;;;;;;;;;4365171;32;317787;-82
2023/09/25 00:29:43;;;;;;;37.30;8.32;;;;;;;;;;4378971;32;317848;-88
2023/09/25 00:32:10;;;;;;;24.02;7.28;;;;;;;;;;4367253;32;317819;-85
2023/09/25 00:34:38;;;;;;;27.25;8.30;;;;;;;;;;4380361;32;317870;-84
2023/09/25 00:37:05;;;;;;;24.70;7.78;;;;;;;;;;4371135;32;318142;-89
2023/09/25 00:39:33;;;;;;;29.87;7.53;;;;;;;;;;4377264;32;317663;-85
2023/09/25 00:42:01;;;;;;;25.27;8.52;;;;;;;;;;4367310;32;317935;-84
2023/09/25 00:44:29;;;;;;;33.80;9.52;;;;;;;;;;4378675;32;318244;-85
2023/09/25 00:46:56;;;;;;;26.33;7.78;;;;;;;;;;4365263;32;326673;-87
2023/09/25 00:49:24;;;;;;;28.05;7.85;;;;;;;;;;4377054;32;318026;-85
2023/09/25 00:51:51;;;;;;;23.45;7.53;;;;;;;;;;4380991;32;317711;-86
2023/09/25 00:54:19;;;;;;;21.60;7.25;;;;;;;;;;4366718;32;418350;-84
2023/09/25 00:56:48;;;;;;;23.05;8.60;;;;;;;;;;4380164;32;317817;-85
2023/09/25 00:59:18;;;;;;;27.17;8.25;;;;;;;;;;4364311;32;317854;-85
2023/09/25 01:01:45;;;;;;;31.00;7.05;;;;;;;;;;4375961;32;317583;-79
2023/09/25 01:04:13;;;;;;;23.77;7.97;;;;;;;;;;4366787;32;317915;-79
2023/09/25 01:06:43;;;;;;;36.67;7.82;;;;;;;;;;4379808;32;317678;-86
2023/09/25 01:09:12;;;;;;;17.20;6.70;;;;;;;;;;4369266;32;317799;-84
2023/09/25 01:11:39;;;;;;;27.15;6.80;;;;;;;;;;4378444;32;318026;-84
2023/09/25 01:14:07;;;;;;;16.98;7.22;;;;;;;;;;4367495;32;318004;-84
2023/09/25 01:16:36;;;;;;;20.80;7.57;;;;;;;;;;4377123;32;317987;-89
2023/09/25 01:19:05;;;;;;;26.27;7.72;;;;;;;;;;4366318;32;317773;-87
2023/09/25 01:21:35;;;;;;;18.90;7.62;;;;;;;;;;4376868;32;318114;-89
2023/09/25 01:24:05;;;;;;;35.40;8.15;;;;;;;;;;4368565;32;335704;-90
2023/09/25 01:26:33;;;;;;;18.30;6.75;;;;;;;;;;4379389;32;317709;-86
2023/09/25 01:29:00;;;;;;;22.52;6.90;;;;;;;;;;4366289;32;318420;-83
2023/09/25 01:31:28;;;;;;;26.52;7.93;;;;;;;;;;4377218;32;317860;-90
2023/09/25 01:33:55;;;;;;;21.60;7.87;;;;;;;;;;4369508;32;401152;-80
2023/09/25 01:36:23;;;;;;;20.05;7.85;;;;;;;;;;4379077;32;317883;-82
2023/09/25 01:38:50;;;;;;;18.27;7.35;;;;;;;;;;4377517;32;317796;-88
2023/09/25 01:41:19;;;;;;;25.85;7.47;;;;;;;;;;4364619;32;317960;-82
2023/09/25 01:43:46;;;;;;;31.55;7.53;;;;;;;;;;4377958;32;317971;-83
2023/09/25 01:46:14;;;;;;;27.08;7.43;;;;;;;;;;4368989;32;317828;-79
2023/09/25 01:48:41;;;;;;;28.98;7.68;;;;;;;;;;4378432;32;336863;-80
2023/09/25 01:51:11;;;;;;;18.05;6.20;;;;;;;;;;4363276;32;317768;-85
2023/09/25 01:53:39;;;;;;;27.08;9.73;;;;;;;;;;4377369;32;317873;-86
2023/09/25 01:56:13;;;;;;;25.23;10.93;;;;;;;;;;4366266;32;318070;-83
2023/09/25 01:58:43;;;;;;;21.58;8.15;;;;;;;;;;4377989;32;318894;-84
2023/09/25 02:01:10;;;;;;;18.12;7.30;;;;;;;;;;4364205;32;317947;-82
2023/09/25 02:03:38;;;;;;;22.35;7.97;;;;;;;;;;4377519;32;318049;-81
2023/09/25 02:06:06;;;;;;;27.67;7.72;;;;;;;;;;4345377;32;317717;-83
2023/09/25 02:08:33;;;;;;;18.48;8.43;;;;;;;;;;4368630;32;317981;-82
2023/09/25 02:11:04;;;;;;;33.75;9.82;;;;;;;;;;4356133;32;317848;-80
2023/09/25 02:13:31;;;;;;;21.87;8.88;;;;;;;;;;4366207;32;316765;-79
2023/09/25 02:16:00;;;;;;;17.48;7.32;;;;;;;;;;4356189;32;317787;-81
2023/09/25 02:18:27;;;;;;;21.20;8.27;;;;;;;;;;4367211;32;317960;-85
2023/09/25 02:20:55;;;;;;;28.52;7.35;;;;;;;;;;4357824;32;317946;-79
2023/09/25 02:23:23;;;;;;;31.77;8.07;;;;;;;;;;4364405;32;317774;-79
2023/09/25 02:25:50;;;;;;;27.87;7.85;;;;;;;;;;4368615;32;317619;-79
2023/09/25 02:28:17;;;;;;;19.20;7.47;;;;;;;;;;4356898;32;317894;-79
2023/09/25 02:30:45;;;;;;;20.00;8.10;;;;;;;;;;4367717;32;318235;-83
2023/09/25 02:33:13;;;;;;;18.52;8.32;;;;;;;;;;4354692;32;318061;-82
2023/09/25 02:35:41;;;;;;;20.00;7.00;;;;;;;;;;4366914;32;317658;-81
2023/09/25 02:38:08;;;;;;;23.30;6.78;;;;;;;;;;4356441;32;345047;-80
2023/09/25 02:40:36;;;;;;;23.55;7.75;;;;;;;;;;4367392;32;317898;-86
2023/09/25 02:43:06;;;;;;;30.95;7.55;;;;;;;;;;4356973;32;317796;-79
2023/09/25 02:45:34;;;;;;;20.05;7.80;;;;;;;;;;4366700;32;317965;-79
2023/09/25 02:48:01;;;;;;;18.02;8.43;;;;;;;;;;4354343;32;317554;-79
2023/09/25 02:50:30;;;;;;;22.30;7.65;;;;;;;;;;4367047;32;317743;-81
2023/09/25 02:52:58;;;;;;;15.75;7.53;;;;;;;;;;4358349;32;317780;-79
2023/09/25 02:55:25;;;;;;;18.58;7.68;;;;;;;;;;4362705;32;317486;-81
2023/09/25 02:57:52;;;;;;;25.75;6.93;;;;;;;;;;4366257;32;317779;-81
2023/09/25 03:00:21;;;;;;;25.35;7.30;;;;;;;;;;4366167;32;416958;-85
2023/09/25 03:02:48;;;;;;;18.35;6.93;;;;;;;;;;4380725;32;317695;-79
2023/09/25 03:05:16;;;;;;;19.15;6.53;;;;;;;;;;4361853;32;317946;-81
2023/09/25 03:07:45;;;;;;;20.52;8.50;;;;;;;;;;4376386;32;317812;-79
2023/09/25 03:10:13;;;;;;;21.98;8.18;;;;;;;;;;4365689;32;323515;-79
2023/09/25 03:12:40;;;;;;;23.30;8.38;;;;;;;;;;4378820;32;317779;-79
2023/09/25 03:15:12;;;;;;;18.65;6.85;;;;;;;;;;4368134;32;318195;-81
2023/09/25 03:17:39;;;;;;;27.17;8.55;;;;;;;;;;4377239;32;317666;-78
2023/09/25 03:20:14;;;;;;;22.75;7.72;;;;;;;;;;4364331;32;353230;-79
2023/09/25 03:22:42;;;;;;;22.02;7.68;;;;;;;;;;4373523;32;317808;-79
2023/09/25 03:25:14;;;;;;;23.50;9.13;;;;;;;;;;4363276;32;317930;-83
2023/09/25 03:27:43;;;;;;;24.77;7.43;;;;;;;;;;4376172;32;317384;-81
2023/09/25 03:30:11;;;;;;;18.53;8.17;;;;;;;;;;4367049;32;341783;-87
2023/09/25 03:32:39;;;;;;;26.23;8.07;;;;;;;;;;4378073;32;317795;-81
2023/09/25 03:35:07;;;;;;;26.15;8.77;;;;;;;;;;4363990;32;340295;-84
2023/09/25 03:37:35;;;;;;;22.00;8.40;;;;;;;;;;4374625;32;318173;-81
2023/09/25 03:40:07;;;;;;;27.30;8.68;;;;;;;;;;4364937;32;317818;-80
2023/09/25 03:42:36;;;;;;;20.30;8.40;;;;;;;;;;4378322;32;318117;-81
2023/09/25 03:45:07;;;;;;;17.35;6.78;;;;;;;;;;4368958;32;318024;-79
2023/09/25 03:47:35;;;;;;;25.48;7.95;;;;;;;;;;4376945;32;317759;-80
2023/09/25 03:50:03;;;;;;;17.92;7.95;;;;;;;;;;4363699;32;317853;-80
2023/09/25 03:52:30;;;;;;;16.12;7.03;;;;;;;;;;4376207;32;317842;-80
2023/09/25 03:54:58;;;;;;;16.90;7.25;;;;;;;;;;4364404;32;317969;-87
2023/09/25 03:57:25;;;;;;;30.30;7.85;;;;;;;;;;4375176;32;317847;-80
2023/09/25 03:59:54;;;;;;;20.45;8.30;;;;;;;;;;4378473;32;317763;-80
2023/09/25 04:02:22;;;;;;;22.80;7.60;;;;;;;;;;4356490;32;417008;-79
2023/09/25 04:04:49;;;;;;;23.40;7.18;;;;;;;;;;4376979;32;317865;-82
2023/09/25 04:07:16;;;;;;;17.08;8.00;;;;;;;;;;4365351;32;325739;-81
2023/09/25 04:09:44;;;;;;;16.25;8.40;;;;;;;;;;4378237;32;317952;-86
2023/09/25 04:12:11;;;;;;;23.23;7.40;;;;;;;;;;4365685;32;317927;-80
2023/09/25 04:14:39;;;;;;;19.15;8.13;;;;;;;;;;4375093;32;317843;-80
2023/09/25 04:17:10;;;;;;;22.35;8.82;;;;;;;;;;4364596;32;317807;-85
2023/09/25 04:19:38;;;;;;;15.35;7.35;;;;;;;;;;4375077;32;317738;-80
2023/09/25 04:22:06;;;;;;;19.70;8.52;;;;;;;;;;4367872;32;318007;-84
2023/09/25 04:24:37;;;;;;;23.23;8.45;;;;;;;;;;4378800;32;317898;-82
2023/09/25 04:27:04;;;;;;;20.85;9.73;;;;;;;;;;4368808;32;317685;-82
2023/09/25 04:29:32;;;;;;;20.85;8.95;;;;;;;;;;4372997;32;317670;-79
2023/09/25 04:32:00;;;;;;;32.05;9.50;;;;;;;;;;4367265;32;317716;-87
2023/09/25 04:34:28;;;;;;;30.05;9.30;;;;;;;;;;4381865;32;317909;-81
2023/09/25 04:36:58;;;;;;;25.80;9.05;;;;;;;;;;4369165;32;317771;-80
2023/09/25 04:39:26;;;;;;;24.12;9.70;;;;;;;;;;4374906;32;317766;-80
2023/09/25 04:41:54;;;;;;;23.35;8.75;;;;;;;;;;4367255;32;317621;-82
2023/09/25 04:44:21;;;;;;;27.02;9.27;;;;;;;;;;4376593;32;317749;-83
2023/09/25 04:46:49;;;;;;;20.00;9.25;;;;;;;;;;4378486;32;317799;-81
2023/09/25 04:49:17;;;;;;;23.60;9.32;;;;;;;;;;4368427;32;317788;-83
2023/09/25 04:51:46;;;;;;;23.90;9.32;;;;;;;;;;4380500;32;317613;-79
2023/09/25 04:54:14;;;;;;;20.33;8.40;;;;;;;;;;4366174;32;317798;-80
2023/09/25 04:56:41;;;;;;;36.65;9.13;;;;;;;;;;4378642;32;317803;-86
2023/09/25 04:59:09;;;;;;;20.77;8.70;;;;;;;;;;4364131;32;317632;-82
2023/09/25 05:01:36;;;;;;;22.13;8.85;;;;;;;;;;4379458;32;317943;-80
2023/09/25 05:04:04;;;;;;;21.62;9.30;;;;;;;;;;4369904;32;317647;-81
2023/09/25 05:06:32;;;;;;;25.45;10.50;;;;;;;;;;4378816;32;317936;-80
2023/09/25 05:09:01;;;;;;;21.15;9.63;;;;;;;;;;4367175;32;318867;-80
2023/09/25 05:11:28;;;;;;;26.92;10.32;;;;;;;;;;4374061;32;317851;-79
2023/09/25 05:13:55;;;;;;;14.82;7.57;;;;;;;;;;4367060;32;318955;-83
2023/09/25 05:16:22;;;;;;;17.52;8.73;;;;;;;;;;4381596;32;317837;-80
2023/09/25 05:18:50;;;;;;;23.05;8.15;;;;;;;;;;4378182;32;317904;-82
2023/09/25 05:21:18;;;;;;;30.73;9.23;;;;;;;;;;4362729;32;317892;-91
2023/09/25 05:23:45;;;;;;;15.93;8.88;;;;;;;;;;4376275;32;317895;-89
2023/09/25 05:26:14;;;;;;;18.62;8.57;;;;;;;;;;4363977;32;318009;-85
2023/09/25 05:28:42;;;;;;;25.35;8.70;;;;;;;;;;4377291;32;317953;-80
2023/09/25 05:31:09;;;;;;;16.17;8.45;;;;;;;;;;4367475;32;317798;-81
2023/09/25 05:33:36;;;;;;;22.77;8.70;;;;;;;;;;4378230;32;317762;-85
2023/09/25 05:36:04;;;;;;;19.98;9.35;;;;;;;;;;4366304;32;331354;-81
2023/09/25 05:38:31;;;;;;;14.40;8.65;;;;;;;;;;4376827;32;317666;-81
2023/09/25 05:40:58;;;;;;;14.82;9.15;;;;;;;;;;4364947;32;317749;-80
2023/09/25 05:43:28;;;;;;;21.50;8.80;;;;;;;;;;4373644;32;317959;-80
2023/09/25 05:45:55;;;;;;;18.33;8.30;;;;;;;;;;4369886;32;317843;-82
2023/09/25 05:48:24;;;;;;;19.12;8.80;;;;;;;;;;4376076;32;317816;-81
2023/09/25 05:50:52;;;;;;;16.73;7.70;;;;;;;;;;4375747;32;317937;-80
2023/09/25 05:53:21;;;;;;;26.27;9.00;;;;;;;;;;4361135;32;387715;-80
2023/09/25 05:55:49;;;;;;;14.38;7.72;;;;;;;;;;4378591;32;318156;-81
2023/09/25 05:58:16;;;;;;;18.50;8.57;;;;;;;;;;4366857;32;317795;-80
2023/09/25 06:00:47;;;;;;;12.48;6.35;;;;;;;;;;4376592;32;334613;-85
2023/09/25 06:03:15;;;;;;;17.65;7.72;;;;;;;;;;4360759;32;318223;-80
2023/09/25 06:05:43;;;;;;;15.68;6.53;;;;;;;;;;4376529;32;317927;-81
2023/09/25 06:08:10;;;;;;;16.58;6.82;;;;;;;;;;4369688;32;317822;-82
2023/09/25 06:10:37;;;;;;;14.32;6.50;;;;;;;;;;4377037;32;316719;-82
2023/09/25 06:13:05;;;;;;;22.85;7.10;;;;;;;;;;4363533;32;317522;-84
2023/09/25 06:15:32;;;;;;;16.48;6.53;;;;;;;;;;4372147;32;318081;-81
2023/09/25 06:18:02;;;;;;;13.93;6.15;;;;;;;;;;4364524;32;317625;-80
2023/09/25 06:20:29;;;;;;;21.70;6.10;;;;;;;;;;4377683;32;317931;-81
2023/09/25 06:23:00;;;;;;;12.15;5.37;;;;;;;;;;4369202;32;317878;-82
2023/09/25 06:25:29;;;;;;;14.73;5.82;;;;;;;;;;4370451;32;324754;-86
2023/09/25 06:27:57;;;;;;;17.12;5.40;;;;;;;;;;4364139;32;317677;-86
2023/09/25 06:30:24;;;;;;;12.63;5.22;;;;;;;;;;4374229;32;317947;-86
2023/09/25 06:32:52;;;;;;;19.25;5.80;;;;;;;;;;4374256;32;317646;-89
2023/09/25 06:35:22;;;;;;;20.52;6.12;;;;;;;;;;4364459;32;387821;-83
2023/09/25 06:37:49;;;;;;;17.67;6.20;;;;;;;;;;4380316;32;317672;-86
2023/09/25 06:40:19;;;;;;;7.95;4.78;;;;;;;;;;4365696;32;317852;-87
2023/09/25 06:42:46;;;;;;;12.73;6.20;;;;;;;;;;4376306;32;316643;-86
2023/09/25 06:45:14;;;;;;;17.52;5.60;;;;;;;;;;4357750;32;348229;-88
2023/09/25 06:47:42;;;;;;;11.98;5.85;;;;;;;;;;4376647;32;317846;-83
2023/09/25 06:50:10;;;;;;;16.08;6.07;;;;;;;;;;4367729;32;317796;-80
2023/09/25 06:52:40;;;;;;;17.23;4.82;;;;;;;;;;4376374;32;317749;-82
2023/09/25 06:55:12;;;;;;;18.63;6.37;;;;;;;;;;4353790;32;319237;-84
2023/09/25 06:57:39;;;;;;;16.90;5.62;;;;;;;;;;4376675;32;317876;-81
2023/09/25 07:00:09;;;;;;;11.05;6.22;;;;;;;;;;4368610;32;317874;-80
2023/09/25 07:02:37;;;;;;;14.60;6.70;;;;;;;;;;4377474;32;317996;-81
2023/09/25 07:05:05;;;;;;;11.33;6.33;;;;;;;;;;4363972;32;317926;-83
2023/09/25 07:07:33;;;;;;;14.93;6.55;;;;;;;;;;4370309;32;331495;-81
2023/09/25 07:10:01;;;;;;;18.98;7.00;;;;;;;;;;4362616;32;318121;-81
2023/09/25 07:12:29;;;;;;;13.73;6.93;;;;;;;;;;4376701;32;317755;-81
2023/09/25 07:14:58;;;;;;;19.65;7.25;;;;;;;;;;4375300;32;317997;-84
2023/09/25 07:17:26;;;;;;;17.15;8.13;;;;;;;;;;4365058;32;317838;-86
2023/09/25 07:19:55;;;;;;;14.18;8.40;;;;;;;;;;4373636;32;317908;-89
2023/09/25 07:22:23;;;;;;;13.88;6.65;;;;;;;;;;4360432;32;317739;-84
2023/09/25 07:24:51;;;;;;;17.05;7.75;;;;;;;;;;4376490;32;317789;-83
2023/09/25 07:27:20;;;;;;;23.27;8.85;;;;;;;;;;4367279;32;317872;-83
2023/09/25 07:29:48;;;;;;;19.40;9.15;;;;;;;;;;4376337;32;317629;-84
2023/09/25 07:32:17;;;;;;;15.60;9.15;;;;;;;;;;4365343;32;317634;-85
2023/09/25 07:34:45;;;;;;;16.95;8.60;;;;;;;;;;4369906;32;317910;-84
2023/09/25 07:37:12;;;;;;;12.98;8.32;;;;;;;;;;4363400;32;317839;-85
2023/09/25 07:39:41;;;;;;;16.52;9.93;;;;;;;;;;4378293;32;318230;-84
2023/09/25 07:42:08;;;;;;;20.70;10.38;;;;;;;;;;4366916;32;402112;-84
2023/09/25 07:44:38;;;;;;;22.37;9.82;;;;;;;;;;4372329;32;318998;-84
2023/09/25 07:47:07;;;;;;;15.93;10.63;;;;;;;;;;4376430;32;317914;-86
2023/09/25 07:49:40;;;;;;;16.73;10.20;;;;;;;;;;4364728;32;417954;-86
2023/09/25 07:52:15;;;;;;;22.23;11.20;;;;;;;;;;4366351;32;319103;-86
2023/09/25 07:54:44;;;;;;;17.83;10.73;;;;;;;;;;4371566;32;319207;-87
2023/09/25 07:57:14;;;;;;;18.90;10.75;;;;;;;;;;4364825;32;319015;-87
2023/09/25 07:59:43;;;;;;;15.25;10.48;;;;;;;;;;4372390;32;350932;-86
2023/09/25 08:02:11;;;;;;;18.27;10.68;;;;;;;;;;4369848;32;351759;-84
2023/09/25 08:04:39;;;;;;;16.37;10.18;;;;;;;;;;4374812;32;319018;-84
2023/09/25 08:07:06;;;;;;;16.45;10.65;;;;;;;;;;4377385;32;318824;-84
2023/09/25 08:09:35;;;;;;;37.40;11.77;;;;;;;;;;4367979;32;418267;-85
2023/09/25 08:12:02;;;;;;;16.58;12.32;;;;;;;;;;4381121;32;318769;-87
2023/09/25 08:14:30;;;;;;;28.48;11.63;;;;;;;;;;4363541;32;318995;-85
2023/09/25 08:16:59;;;;;;;16.52;10.48;;;;;;;;;;4377953;32;318705;-82
2023/09/25 08:19:26;;;;;;;16.50;11.23;;;;;;;;;;4368295;32;318863;-82
2023/09/25 08:21:54;;;;;;;15.05;11.15;;;;;;;;;;4377457;32;318829;-80
2023/09/25 08:24:22;;;;;;;34.05;12.05;;;;;;;;;;4370350;32;319126;-84
2023/09/25 08:26:49;;;;;;;23.80;12.70;;;;;;;;;;4378207;32;318772;-87
2023/09/25 08:29:17;;;;;;;20.62;12.20;;;;;;;;;;4365086;32;335953;-84
2023/09/25 08:31:45;;;;;;;20.60;12.18;;;;;;;;;;4377042;32;318920;-83
2023/09/25 08:34:14;;;;;;;18.65;12.43;;;;;;;;;;4366514;32;319019;-85
2023/09/25 08:36:41;;;;;;;33.13;12.43;;;;;;;;;;4377964;32;318857;-84
2023/09/25 08:39:11;;;;;;;14.95;11.32;;;;;;;;;;4371250;32;318875;-84
2023/09/25 08:41:41;;;;;;;24.73;13.13;;;;;;;;;;4377997;32;328925;-83
2023/09/25 08:44:10;;;;;;;18.70;11.05;;;;;;;;;;4362237;32;353282;-83
2023/09/25 08:46:37;;;;;;;24.12;11.32;;;;;;;;;;4373970;32;319244;-83
2023/09/25 08:49:06;;;;;;;14.93;10.88;;;;;;;;;;4375323;32;318770;-83
2023/09/25 08:51:39;;;;;;;17.95;12.15;;;;;;;;;;4365738;32;418528;-85
2023/09/25 08:54:07;;;;;;;16.30;11.63;;;;;;;;;;4380310;32;318726;-81
2023/09/25 08:56:34;;;;;;;27.55;12.73;;;;;;;;;;4363703;32;418341;-82
2023/09/25 08:59:03;;;;;;;23.08;12.57;;;;;;;;;;4380780;32;318767;-83
2023/09/25 09:01:31;;;;;;;17.27;12.50;;;;;;;;;;4355881;32;319059;-81
2023/09/25 09:03:58;;;;;;;17.50;12.15;;;;;;;;;;4367770;32;318893;-81
2023/09/25 09:06:25;;;;;;;24.45;13.07;;;;;;;;;;4353802;32;318840;-84
2023/09/25 09:08:54;;;;;;;17.65;11.20;;;;;;;;;;4365599;32;318924;-81
2023/09/25 09:11:22;;;;;;;22.62;11.25;;;;;;;;;;4357427;32;338221;-83
2023/09/25 09:13:50;;;;;;;18.48;12.15;;;;;;;;;;4366740;32;327349;-83
2023/09/25 09:16:19;;;;;;;24.08;10.70;;;;;;;;;;4358471;32;318936;-80
2023/09/25 09:18:47;;;;;;;17.40;12.02;;;;;;;;;;4364713;32;318694;-83
2023/09/25 09:21:26;;;;;;;20.98;11.60;;;;;;;;;;4354559;32;340426;-80
2023/09/25 09:23:57;;;;;;;18.75;10.88;;;;;;;;;;4365566;32;318730;-80
2023/09/25 09:26:25;;;;;;;19.67;12.23;;;;;;;;;;4351924;32;319052;-81
2023/09/25 09:28:54;;;;;;;18.42;12.07;;;;;;;;;;4366426;32;318981;-81
2023/09/25 09:31:21;;;;;;;19.77;12.05;;;;;;;;;;4357048;32;319047;-82
2023/09/25 09:33:50;;;;;;;22.15;11.38;;;;;;;;;;4365182;32;318724;-82
2023/09/25 09:36:19;;;;;;;29.55;12.07;;;;;;;;;;4355643;32;318901;-81
2023/09/25 09:38:48;;;;;;;17.08;10.90;;;;;;;;;;4364717;32;318894;-80
2023/09/25 09:41:19;;;;;;;33.03;12.05;;;;;;;;;;4354340;32;318674;-83
2023/09/25 09:43:48;;;;;;;21.55;11.27;;;;;;;;;;4366765;32;359439;-82
2023/09/25 09:46:17;;;;;;;25.75;12.02;;;;;;;;;;4355136;32;318566;-85
2023/09/25 09:48:47;;;;;;;14.82;11.65;;;;;;;;;;4364590;32;318855;-90
2023/09/25 09:51:18;;;;;;;26.73;11.18;;;;;;;;;;4357244;32;318924;-80
2023/09/25 09:53:46;;;;;;;20.42;11.40;;;;;;;;;;4368014;32;318876;-81
2023/09/25 09:56:16;;;;;;;19.77;11.85;;;;;;;;;;4357043;32;318869;-82
2023/09/25 09:58:47;;;;;;;18.73;12.77;;;;;;;;;;4363005;32;318945;-83
2023/09/25 10:01:15;;;;;;;21.15;12.35;;;;;;;;;;4355013;32;318851;-85
2023/09/25 10:03:43;;;;;;;14.63;11.20;;;;;;;;;;4364388;32;319416;-84
2023/09/25 10:06:11;;;;;;;17.33;11.73;;;;;;;;;;4356423;32;319062;-84
2023/09/25 10:08:39;;;;;;;19.40;10.82;;;;;;;;;;4361210;32;318965;-81
2023/09/25 10:11:16;;;;;;;12.25;9.82;;;;;;;;;;4362784;32;318865;-83
2023/09/25 10:13:45;;;;;;;19.58;11.10;;;;;;;;;;4353394;32;417534;-80
2023/09/25 10:16:15;;;;;;;20.95;11.23;;;;;;;;;;4357279;32;347292;-82
2023/09/25 10:18:43;;;;;;;21.27;10.98;;;;;;;;;;4364038;32;318898;-81
2023/09/25 10:21:14;;;;;;;25.30;11.10;;;;;;;;;;4349771;32;352264;-84
2023/09/25 10:23:43;;;;;;;18.67;11.98;;;;;;;;;;4364698;32;318794;-82
2023/09/25 10:26:18;;;;;;;20.45;9.93;;;;;;;;;;4355642;32;318859;-81
2023/09/25 10:28:57;;;;;;;22.05;12.27;;;;;;;;;;4363908;32;318087;-80
2023/09/25 10:31:29;;;;;;;11.30;9.43;;;;;;;;;;4357303;32;319043;-80
2023/09/25 10:34:00;;;;;;;13.57;9.32;;;;;;;;;;4368070;32;317793;-81
2023/09/25 10:36:38;;;;;;;24.75;10.68;;;;;;;;;;4355537;32;317858;-80
2023/09/25 10:39:08;;;;;;;19.27;11.48;;;;;;;;;;4366915;32;318562;-80
2023/09/25 10:41:36;;;;;;;20.50;11.05;;;;;;;;;;4361972;32;418087;-82
2023/09/25 10:44:06;;;;;;;18.37;10.40;;;;;;;;;;4373785;32;341569;-85
2023/09/25 10:46:35;;;;;;;18.05;10.27;;;;;;;;;;4361827;32;418430;-81
2023/09/25 10:49:02;;;;;;;22.70;11.32;;;;;;;;;;4381190;32;318857;-83
2023/09/25 10:51:30;;;;;;;13.73;9.50;;;;;;;;;;4365138;32;319121;-83
2023/09/25 10:53:58;;;;;;;14.13;9.32;;;;;;;;;;4375628;32;317857;-89
2023/09/25 10:56:26;;;;;;;18.47;9.53;;;;;;;;;;4360101;32;318016;-83
2023/09/25 10:58:53;;;;;;;13.82;9.68;;;;;;;;;;4376764;32;318179;-82
2023/09/25 11:01:28;;;;;;;12.30;6.97;;;;;;;;;;4367233;32;318169;-83
2023/09/25 11:03:59;;;;;;;12.00;8.27;;;;;;;;;;4376168;32;317996;-83
2023/09/25 11:06:28;;;;;;;11.80;6.15;;;;;;;;;;4359435;32;317773;-84
2023/09/25 11:08:59;;;;;;;9.23;6.28;;;;;;;;;;4375081;32;317822;-84
2023/09/25 11:11:29;;;;;;;8.20;5.25;;;;;;;;;;4365358;32;316969;-89
2023/09/25 11:13:56;;;;;;;10.45;6.95;;;;;;;;;;4377582;32;316862;-88
2023/09/25 11:16:28;;;;;;;9.73;5.82;;;;;;;;;;4363462;32;317878;-85
2023/09/25 11:19:07;;;;;;;12.43;5.87;;;;;;;;;;4376616;32;316716;-84
2023/09/25 11:21:35;;;;;;;7.07;4.95;;;;;;;;;;4369323;32;417084;-87
2023/09/25 11:24:06;;;;;;;8.20;5.65;;;;;;;;;;4380452;32;316711;-83
2023/09/25 11:26:37;;;;;;;9.02;5.43;;;;;;;;;;4362078;32;419287;-85
2023/09/25 11:29:07;;;;;;;9.27;5.72;;;;;;;;;;4379126;32;316902;-81
2023/09/25 11:31:36;;;;;;;6.75;4.85;;;;;;;;;;4364318;32;416928;-81
2023/09/25 11:34:04;;;;;;;9.75;6.40;;;;;;;;;;4376569;32;316794;-83
2023/09/25 11:36:32;;;;;;;11.00;5.93;;;;;;;;;;4367362;32;320297;-82
2023/09/25 11:39:00;;;;;;;8.98;5.62;;;;;;;;;;4381598;32;317747;-81
2023/09/25 11:41:27;;;;;;;7.47;5.18;;;;;;;;;;4366425;32;316605;-84
2023/09/25 11:43:54;;;;;;;6.60;5.30;;;;;;;;;;4378547;32;316572;-81
2023/09/25 11:46:25;;;;;;;7.93;4.50;;;;;;;;;;4365440;32;316796;-84
2023/09/25 11:48:54;;;;;;;9.38;5.72;;;;;;;;;;4378950;32;316514;-80
2023/09/25 11:51:21;;;;;;;7.47;5.45;;;;;;;;;;4372007;32;316816;-83
2023/09/25 11:53:49;;;;;;;10.15;5.30;;;;;;;;;;4379687;32;316729;-81
2023/09/25 11:56:16;;;;;;;12.77;5.72;;;;;;;;;;4369096;32;335287;-83
2023/09/25 11:58:44;;;;;;;7.53;5.53;;;;;;;;;;4376094;32;318278;-81
2023/09/25 12:01:12;;;;;;;12.15;5.65;;;;;;;;;;4368842;32;316830;-82
2023/09/25 12:03:39;;;;;;;9.90;5.22;;;;;;;;;;4382801;32;317682;-80
2023/09/25 12:06:09;;;;;;;10.25;5.62;;;;;;;;;;4375861;32;316727;-82
2023/09/25 12:08:38;;;;;;;12.43;5.07;;;;;;;;;;4374726;32;317821;-83
2023/09/25 12:11:05;;;;;;;7.45;5.12;;;;;;;;;;4377711;32;316709;-82
2023/09/25 12:13:34;;;;;;;8.38;4.97;;;;;;;;;;4370517;32;385774;-83
2023/09/25 12:16:01;;;;;;;10.65;5.55;;;;;;;;;;4382410;32;316916;-84
2023/09/25 12:18:30;;;;;;;7.78;4.85;;;;;;;;;;4366003;32;317690;-84
2023/09/25 12:20:58;;;;;;;10.60;4.97;;;;;;;;;;4379325;32;316768;-88
2023/09/25 12:23:27;;;;;;;8.38;4.32;;;;;;;;;;4369215;32;317910;-91
2023/09/25 12:25:54;;;;;;;13.62;5.18;;;;;;;;;;4380720;32;316811;-82
2023/09/25 12:28:23;;;;;;;9.45;5.05;;;;;;;;;;4368466;32;317964;-84
2023/09/25 12:30:50;;;;;;;10.07;5.07;;;;;;;;;;4379196;32;316703;-80
2023/09/25 12:33:21;;;;;;;6.10;4.55;;;;;;;;;;4369047;32;317803;-80
2023/09/25 12:35:48;;;;;;;10.85;4.35;;;;;;;;;;4378245;32;317104;-80
2023/09/25 12:38:15;;;;;;;10.63;5.35;;;;;;;;;;4366342;32;317800;-82
2023/09/25 12:40:44;;;;;;;7.85;4.50;;;;;;;;;;4377374;32;317860;-81
2023/09/25 12:43:11;;;;;;;7.07;4.10;;;;;;;;;;4372586;32;316964;-80
2023/09/25 12:45:39;;;;;;;5.32;3.80;;;;;;;;;;4376443;32;316982;-80
2023/09/25 12:48:07;;;;;;;10.40;4.12;;;;;;;;;;4377823;32;316814;-81
2023/09/25 12:50:35;;;;;;;5.70;4.22;;;;;;;;;;4362540;32;417317;-81
2023/09/25 12:53:02;;;;;;;6.15;4.05;;;;;;;;;;4375152;32;317006;-82
2023/09/25 12:55:31;;;;;;;8.35;4.35;;;;;;;;;;4367977;32;317271;-80
2023/09/25 12:58:00;;;;;;;7.87;4.22;;;;;;;;;;4377894;32;317223;-88
2023/09/25 13:00:28;;;;;;;6.65;3.95;;;;;;;;;;4366833;32;316980;-84
2023/09/25 13:02:55;;;;;;;5.05;3.75;;;;;;;;;;4386232;32;207077;-81
2023/09/25 13:05:23;;;;;;;9.10;4.40;;;;;;;;;;4368966;32;316964;-81
2023/09/25 13:07:50;;;;;;;4.43;3.05;;;;;;;;;;4375968;32;316883;-81
2023/09/25 13:10:18;;;;;;;5.10;3.08;;;;;;;;;;4366811;32;316911;-81
2023/09/25 13:12:45;;;;;;;9.30;3.47;;;;;;;;;;4376753;32;316681;-81
2023/09/25 13:15:19;;;;;;;5.53;2.92;;;;;;;;;;4370905;32;316917;-81
2023/09/25 13:17:46;;;;;;;7.03;2.90;;;;;;;;;;4377896;32;317126;-81
2023/09/25 13:20:15;;;;;;;5.10;2.42;;;;;;;;;;4366776;32;316819;-87
2023/09/25 13:22:42;;;;;;;7.57;2.90;;;;;;;;;;4373819;32;316833;-81
2023/09/25 13:25:10;;;;;;;7.20;3.00;;;;;;;;;;4367372;32;317948;-81
2023/09/25 13:27:38;;;;;;;5.80;3.22;;;;;;;;;;4380591;32;316945;-81
2023/09/25 13:30:11;;;;;;;6.75;3.55;;;;;;;;;;4379535;32;316874;-81
2023/09/25 13:32:40;;;;;;;5.57;3.05;;;;;;;;;;4362518;32;416151;-83
2023/09/25 13:35:09;;;;;;;10.55;2.72;;;;;;;;;;4377280;32;316727;-87
2023/09/25 13:37:37;;;;;;;7.65;3.15;;;;;;;;;;4379343;32;317953;-88
2023/09/25 13:40:06;;;;;;;7.40;3.47;;;;;;;;;;4378076;32;317041;-93
2023/09/25 13:42:33;;;;;;;7.40;2.97;;;;;;;;;;4362354;32;416004;-89
2023/09/25 13:45:00;;;;;;;16.73;3.50;;;;;;;;;;4369425;32;317099;-81
2023/09/25 13:47:28;;;;;;;8.35;3.03;;;;;;;;;;4358016;32;318050;-89
2023/09/25 13:49:56;;;;;;;12.80;3.25;;;;;;;;;;4379872;32;316981;-90
2023/09/25 13:52:25;;;;;;;5.30;2.97;;;;;;;;;;4362048;32;341436;-81
2023/09/25 13:54:54;;;;;;;6.45;3.15;;;;;;;;;;4376802;32;316698;-85
2023/09/25 13:57:21;;;;;;;9.55;3.28;;;;;;;;;;4365678;32;316826;-89
2023/09/25 13:59:50;;;;;;;11.02;3.30;;;;;;;;;;4378466;32;343321;-92
2023/09/25 14:02:17;;;;;;;7.45;3.33;;;;;;;;;;4369957;32;317953;-90
2023/09/25 14:04:44;;;;;;;12.57;3.97;;;;;;;;;;4375351;32;316840;-93
2023/09/25 14:07:13;;;;;;;10.40;3.15;;;;;;;;;;4366219;32;317555;-88
2023/09/25 14:09:41;;;;;;;11.82;3.25;;;;;;;;;;4376877;32;317886;-94
2023/09/25 14:12:09;;;;;;;16.92;4.07;;;;;;;;;;4366210;32;317890;-83
2023/09/25 14:14:43;;;;;;;6.12;3.28;;;;;;;;;;4375068;32;318069;-89
2023/09/25 14:17:11;;;;;;;5.47;2.85;;;;;;;;;;4367098;32;317031;-82
2023/09/25 14:19:38;;;;;;;8.52;3.33;;;;;;;;;;4375770;32;316576;-86
2023/09/25 14:22:06;;;;;;;15.38;3.90;;;;;;;;;;4377137;32;317134;-89